SLMG

Details ICAO SLMG
Name Magdalena
Region Bolivia
Timezone America/La_Paz (UTC-4.0)
Plans Departing 0
Arriving 1
Stats Elevation 463 ft / 141 m (AMSL)
Location -13.258333° -64.073059°
Runways 1
Magnetic Variation 12.163° W
Sunrise 2018-05-23 10:31:08 UTC / 2018-05-23 06:31:08 Local
Sunset 2018-05-23 21:57:50 UTC / 2018-05-23 17:57:50 Local
Advertisement - Login to hide

Runways

ID Width Length Bearing (true) Bearing (mag) Surface Threshold Offset Overrun Length
16 66 ft / 20 m 4,596 ft / 1,401 m 153.00° 165.16° Concrete 0 ft / 0 m 0 ft / 0 m
34 66 ft / 20 m 4,596 ft / 1,401 m 333.00° 345.16° Concrete 0 ft / 0 m 0 ft / 0 m

Map

Weather


0- 5 10 15 20 25 30 35+ Temperature / ° C

Clouds and Precipitation
Forecast for 2018-05-23 18:00 UTC. Updated 4 hours ago

Ground ~20,000 ft ~40,000 ft Winds

METAR

SLMG 232100Z 12004KT 9999 FEW015 27/19 Q1015

TAF

Not found
Warning: Do not use this data for real-world aviation or navigation. No guarantee of current accuracy is given.